createdAt,value
2017-10-29T00:00:32.055Z,9.80
2017-10-29T00:02:59.697Z,9.80
2017-10-29T00:05:28.060Z,9.80
2017-10-29T00:07:55.631Z,9.80
2017-10-29T00:10:24.008Z,9.90
2017-10-29T00:12:51.586Z,9.90
2017-10-29T00:15:20.007Z,9.90
2017-10-29T00:17:47.616Z,9.80
2017-10-29T00:20:15.226Z,9.80
2017-10-29T00:22:42.815Z,9.80
2017-10-29T00:25:10.393Z,9.90
2017-10-29T00:27:38.006Z,9.90
2017-10-29T00:30:05.643Z,9.90
2017-10-29T00:32:33.249Z,9.90
2017-10-29T00:35:00.861Z,10.00
2017-10-29T00:37:28.504Z,10.00
2017-10-29T00:39:56.116Z,10.00
2017-10-29T00:42:23.718Z,10.10
2017-10-29T00:44:51.334Z,10.10
2017-10-29T00:47:18.909Z,10.10
2017-10-29T00:49:46.491Z,10.10
2017-10-29T00:52:14.103Z,10.20
2017-10-29T00:54:41.728Z,10.10
2017-10-29T00:57:09.346Z,10.10
2017-10-29T00:59:36.992Z,10.10
2017-10-29T01:02:04.848Z,10.10
2017-10-29T01:04:32.488Z,10.10
2017-10-29T01:07:00.089Z,10.10
2017-10-29T01:09:27.719Z,10.10
2017-10-29T01:11:55.294Z,10.20
2017-10-29T01:14:23.689Z,10.10
2017-10-29T01:16:51.282Z,10.10
2017-10-29T01:19:18.871Z,10.20
2017-10-29T01:21:46.497Z,10.20
2017-10-29T01:24:14.081Z,10.20
2017-10-29T01:26:41.697Z,10.20
2017-10-29T01:29:09.326Z,10.20
2017-10-29T01:31:37.689Z,10.20
2017-10-29T01:34:05.396Z,10.20
2017-10-29T01:36:33.032Z,10.20
2017-10-29T01:39:01.373Z,10.30
2017-10-29T01:41:29.020Z,10.20
2017-10-29T01:43:56.595Z,10.20
2017-10-29T01:46:24.224Z,10.30
2017-10-29T01:48:51.853Z,10.20
2017-10-29T01:51:20.196Z,10.20
2017-10-29T01:53:47.837Z,10.20
2017-10-29T01:56:15.419Z,10.20
2017-10-29T01:58:42.995Z,10.20
2017-10-29T02:01:10.613Z,10.20
2017-10-29T02:03:38.197Z,10.20
2017-10-29T02:06:05.844Z,10.20
2017-10-29T02:08:33.438Z,10.20
2017-10-29T02:11:01.073Z,10.10
2017-10-29T02:13:28.641Z,10.20
2017-10-29T02:15:56.973Z,10.10
2017-10-29T02:18:24.588Z,10.10
2017-10-29T02:20:52.149Z,10.10
2017-10-29T02:23:19.890Z,10.10
2017-10-29T02:25:47.544Z,10.10
2017-10-29T02:28:15.148Z,10.10
2017-10-29T02:30:42.762Z,10.10
2017-10-29T02:33:10.409Z,10.10
2017-10-29T02:35:38.752Z,10.20
2017-10-29T02:38:06.327Z,10.10
2017-10-29T02:40:33.936Z,10.10
2017-10-29T02:43:01.543Z,10.20
2017-10-29T02:45:29.124Z,10.30
2017-10-29T02:47:57.515Z,10.30
2017-10-29T02:50:25.138Z,10.30
2017-10-29T02:52:52.764Z,10.30
2017-10-29T02:55:20.330Z,10.40
2017-10-29T02:57:47.939Z,10.40
2017-10-29T03:00:15.506Z,10.40
2017-10-29T03:02:43.145Z,10.30
2017-10-29T03:05:10.732Z,10.40
2017-10-29T03:07:39.091Z,10.40
2017-10-29T03:10:06.726Z,10.40
2017-10-29T03:12:34.289Z,10.50
2017-10-29T03:15:01.909Z,10.50
2017-10-29T03:17:30.271Z,10.50
2017-10-29T03:19:57.886Z,10.50
2017-10-29T03:22:25.477Z,10.50
2017-10-29T03:24:53.088Z,10.40
2017-10-29T03:27:20.722Z,10.50
2017-10-29T03:29:48.327Z,10.50
2017-10-29T03:32:15.944Z,10.50
2017-10-29T03:34:43.556Z,10.50
2017-10-29T03:37:11.148Z,10.50
2017-10-29T03:39:39.180Z,10.40
2017-10-29T03:42:07.020Z,10.40
2017-10-29T03:44:34.693Z,10.40
2017-10-29T03:47:03.029Z,10.40
2017-10-29T03:49:30.634Z,10.30
2017-10-29T03:51:59.011Z,10.40
2017-10-29T03:54:26.575Z,10.30
2017-10-29T03:56:54.191Z,10.40
2017-10-29T03:59:21.768Z,10.40
2017-10-29T04:01:51.723Z,10.40
2017-10-29T04:04:19.314Z,10.40
2017-10-29T04:06:46.891Z,10.40
2017-10-29T04:09:14.519Z,10.40
2017-10-29T04:11:42.104Z,10.40
2017-10-29T04:14:09.713Z,10.40
2017-10-29T04:16:38.110Z,10.40
2017-10-29T04:19:05.686Z,10.40
2017-10-29T04:21:33.310Z,10.50
2017-10-29T04:24:01.665Z,10.50
2017-10-29T04:26:29.273Z,10.50
2017-10-29T04:28:56.896Z,10.40
2017-10-29T04:31:25.259Z,10.40
2017-10-29T04:33:52.845Z,10.40
2017-10-29T04:36:21.241Z,10.40
2017-10-29T04:38:48.951Z,10.50
2017-10-29T04:41:16.562Z,10.50
2017-10-29T04:43:44.176Z,10.40
2017-10-29T04:46:11.770Z,10.50
2017-10-29T04:48:39.397Z,10.40
2017-10-29T04:51:06.987Z,10.50
2017-10-29T04:53:34.561Z,10.50
2017-10-29T04:56:02.961Z,10.60
2017-10-29T04:58:30.536Z,10.50
2017-10-29T05:00:58.133Z,10.50
2017-10-29T05:03:25.775Z,10.60
2017-10-29T05:05:53.339Z,10.60
2017-10-29T05:08:20.959Z,10.60
2017-10-29T05:10:49.334Z,10.60
2017-10-29T05:13:17.664Z,10.70
2017-10-29T05:15:45.235Z,10.70
2017-10-29T05:18:12.854Z,10.70
2017-10-29T05:20:40.427Z,10.70
2017-10-29T05:23:07.997Z,10.70
2017-10-29T05:25:35.605Z,10.70
2017-10-29T05:28:03.169Z,10.80
2017-10-29T05:30:31.553Z,10.80
2017-10-29T05:32:59.918Z,10.90
2017-10-29T05:35:28.319Z,10.90
2017-10-29T05:37:55.910Z,10.90
2017-10-29T05:40:23.515Z,10.90
2017-10-29T05:42:51.119Z,10.90
2017-10-29T05:45:18.740Z,11.00
2017-10-29T05:47:46.308Z,11.00
2017-10-29T05:50:14.694Z,11.10
2017-10-29T05:52:43.028Z,11.20
2017-10-29T05:55:10.629Z,11.20
2017-10-29T05:57:38.994Z,11.20
2017-10-29T06:00:06.637Z,11.20
2017-10-29T06:02:34.217Z,11.30
2017-10-29T06:05:01.801Z,11.30
2017-10-29T06:07:30.176Z,11.30
2017-10-29T06:09:57.744Z,11.30
2017-10-29T06:12:25.404Z,11.30
2017-10-29T06:14:53.846Z,11.30
2017-10-29T06:17:21.522Z,11.30
2017-10-29T06:19:49.902Z,11.20
2017-10-29T06:22:17.540Z,11.20
2017-10-29T06:24:45.167Z,11.20
2017-10-29T06:27:13.516Z,11.00
2017-10-29T06:29:41.168Z,11.00
2017-10-29T06:32:08.794Z,11.00
2017-10-29T06:34:36.384Z,10.90
2017-10-29T06:37:04.011Z,10.80
2017-10-29T06:39:31.590Z,10.80
2017-10-29T06:41:59.196Z,10.80
2017-10-29T06:44:27.736Z,10.70
2017-10-29T06:46:55.332Z,10.70
2017-10-29T06:49:22.959Z,10.70
2017-10-29T06:51:51.336Z,10.80
2017-10-29T06:54:18.956Z,10.80
2017-10-29T06:56:46.589Z,10.80
2017-10-29T06:59:14.188Z,10.80
2017-10-29T07:01:41.755Z,10.80
2017-10-29T07:04:09.372Z,10.80
2017-10-29T07:06:36.951Z,10.70
2017-10-29T07:09:05.327Z,10.70
2017-10-29T07:11:32.922Z,10.60
2017-10-29T07:14:00.528Z,10.60
2017-10-29T07:16:28.109Z,10.70
2017-10-29T07:18:55.735Z,10.60
2017-10-29T07:21:23.308Z,10.60
2017-10-29T07:23:50.927Z,10.50
2017-10-29T07:26:18.499Z,10.60
2017-10-29T07:28:46.155Z,10.60
2017-10-29T07:31:13.765Z,10.60
2017-10-29T07:33:41.327Z,10.60
2017-10-29T07:36:08.902Z,10.60
2017-10-29T07:38:36.548Z,10.60
2017-10-29T07:41:04.147Z,10.70
2017-10-29T07:43:31.756Z,10.60
2017-10-29T07:45:59.362Z,10.70
2017-10-29T07:48:27.740Z,10.70
2017-10-29T07:50:56.688Z,10.80
2017-10-29T07:53:24.288Z,10.80
2017-10-29T07:55:52.647Z,10.80
2017-10-29T07:58:20.266Z,10.80
2017-10-29T08:00:47.845Z,10.80
2017-10-29T08:03:15.449Z,10.90
2017-10-29T08:05:43.832Z,10.90
2017-10-29T08:08:12.175Z,10.90
2017-10-29T08:10:39.752Z,10.90
2017-10-29T08:13:07.359Z,11.00
2017-10-29T08:15:34.937Z,11.00
2017-10-29T08:18:02.580Z,11.00
2017-10-29T08:20:30.147Z,11.00
2017-10-29T08:22:57.744Z,11.00
2017-10-29T08:25:25.374Z,10.90
2017-10-29T08:27:52.955Z,10.90
2017-10-29T08:30:20.537Z,10.90
2017-10-29T08:32:48.183Z,10.90
2017-10-29T08:35:15.768Z,11.00
2017-10-29T08:37:43.387Z,11.00
2017-10-29T08:40:10.979Z,11.00
2017-10-29T08:42:38.589Z,10.90
2017-10-29T08:45:06.215Z,10.90
2017-10-29T08:47:33.787Z,10.80
2017-10-29T08:50:02.140Z,10.90
2017-10-29T08:52:29.747Z,10.90
2017-10-29T08:54:58.141Z,10.90
2017-10-29T08:57:25.714Z,10.90
2017-10-29T08:59:53.315Z,10.90
2017-10-29T09:02:20.895Z,11.00
2017-10-29T09:04:49.297Z,11.00
2017-10-29T09:07:16.888Z,10.90
2017-10-29T09:09:44.500Z,11.00
2017-10-29T09:12:12.924Z,11.00
2017-10-29T09:14:40.484Z,11.00
2017-10-29T09:17:08.139Z,11.00
2017-10-29T09:19:35.709Z,11.00
2017-10-29T09:22:03.283Z,11.00
2017-10-29T09:24:30.913Z,11.10
2017-10-29T09:26:58.479Z,11.10
2017-10-29T09:29:26.091Z,11.10
2017-10-29T09:31:53.677Z,11.10
2017-10-29T09:34:22.028Z,11.30
2017-10-29T09:36:49.687Z,11.30
2017-10-29T09:39:17.262Z,11.30
2017-10-29T09:41:44.836Z,11.30
2017-10-29T09:44:13.229Z,11.40
2017-10-29T09:46:41.638Z,11.60
2017-10-29T09:49:09.224Z,11.60
2017-10-29T09:51:36.802Z,11.70
2017-10-29T09:54:04.435Z,11.70
2017-10-29T09:56:32.025Z,11.70
2017-10-29T09:58:59.593Z,11.70
2017-10-29T10:01:27.216Z,11.80
2017-10-29T10:03:54.804Z,11.70
2017-10-29T10:06:22.379Z,11.80
2017-10-29T10:08:50.764Z,12.00
2017-10-29T10:11:18.385Z,12.00
2017-10-29T10:13:46.035Z,12.00
2017-10-29T10:16:13.604Z,12.00
2017-10-29T10:18:41.177Z,12.20
2017-10-29T10:21:10.010Z,12.30
2017-10-29T10:23:38.338Z,12.50
2017-10-29T10:26:05.917Z,12.50
2017-10-29T10:28:33.530Z,12.50
2017-10-29T10:31:01.104Z,12.60
2017-10-29T10:33:28.675Z,12.80
2017-10-29T10:35:56.341Z,12.90
2017-10-29T10:38:23.939Z,12.90
2017-10-29T10:40:51.560Z,13.00
2017-10-29T10:43:19.157Z,13.20
2017-10-29T10:45:46.766Z,13.20
2017-10-29T10:48:14.396Z,13.30
2017-10-29T10:50:43.543Z,13.40
2017-10-29T10:53:11.143Z,13.40
2017-10-29T10:55:38.715Z,13.40
2017-10-29T10:58:07.119Z,13.70
2017-10-29T11:00:34.743Z,13.70
2017-10-29T11:03:02.351Z,13.90
2017-10-29T11:05:29.994Z,14.20
2017-10-29T11:07:57.578Z,14.60
2017-10-29T11:10:25.172Z,14.80
2017-10-29T11:12:52.800Z,14.80
2017-10-29T11:15:20.419Z,14.60
2017-10-29T11:17:48.834Z,15.10
2017-10-29T11:20:16.439Z,15.10
2017-10-29T11:22:44.064Z,15.70
2017-10-29T11:25:11.672Z,16.70
2017-10-29T11:27:39.315Z,17.50
2017-10-29T11:30:06.892Z,18.10
2017-10-29T11:32:34.483Z,18.70
2017-10-29T11:35:02.852Z,20.00
2017-10-29T11:37:31.187Z,20.00
2017-10-29T11:39:58.820Z,20.00
2017-10-29T11:42:26.470Z,21.50
2017-10-29T11:44:54.819Z,24.10
2017-10-29T11:47:23.186Z,22.40
2017-10-29T11:49:50.828Z,22.30
2017-10-29T11:52:18.428Z,21.60
2017-10-29T11:54:46.031Z,22.10
2017-10-29T11:57:13.604Z,22.20
2017-10-29T11:59:41.234Z,23.20
2017-10-29T12:02:09.564Z,23.00
2017-10-29T12:04:37.491Z,22.90
2017-10-29T12:07:05.059Z,23.10
2017-10-29T12:09:32.640Z,23.00
2017-10-29T12:12:01.026Z,24.50
2017-10-29T12:14:28.622Z,24.50
2017-10-29T12:16:56.306Z,24.00
2017-10-29T12:19:24.647Z,23.60
2017-10-29T12:21:52.207Z,23.50
2017-10-29T12:24:19.821Z,23.50
2017-10-29T12:26:47.436Z,23.00
2017-10-29T12:29:15.072Z,22.20
2017-10-29T12:31:42.698Z,21.40
2017-10-29T12:34:10.319Z,20.50
2017-10-29T12:36:37.944Z,19.30
2017-10-29T12:39:05.555Z,18.40
2017-10-29T12:41:33.129Z,17.30
2017-10-29T12:44:00.752Z,17.10
2017-10-29T12:46:28.379Z,17.20
2017-10-29T12:48:56.782Z,16.30
2017-10-29T12:51:24.428Z,16.20
2017-10-29T12:53:52.044Z,16.20
2017-10-29T12:56:19.675Z,16.10
2017-10-29T12:58:47.304Z,15.70
2017-10-29T13:01:14.878Z,15.90
2017-10-29T13:03:42.506Z,16.20
2017-10-29T13:06:10.876Z,16.00
2017-10-29T13:08:39.260Z,15.80
2017-10-29T13:11:07.661Z,15.50
2017-10-29T13:13:35.283Z,15.50
2017-10-29T13:16:02.873Z,15.50
2017-10-29T13:18:31.254Z,15.10
2017-10-29T13:20:59.622Z,15.00
2017-10-29T13:23:27.204Z,14.90
2017-10-29T13:25:55.583Z,15.30
2017-10-29T13:28:23.187Z,15.30
2017-10-29T13:30:50.785Z,15.60
2017-10-29T13:33:18.402Z,15.40
2017-10-29T13:35:46.040Z,15.20
2017-10-29T13:38:13.741Z,15.00
2017-10-29T13:40:41.379Z,14.70
2017-10-29T13:43:08.975Z,14.60
2017-10-29T13:45:36.597Z,14.60
2017-10-29T13:48:04.213Z,14.50
2017-10-29T13:50:32.562Z,14.30
2017-10-29T13:53:00.179Z,11.90
2017-10-29T13:55:28.533Z,14.10
2017-10-29T13:57:56.941Z,14.20
2017-10-29T14:00:25.267Z,14.40
2017-10-29T14:02:52.888Z,14.40
2017-10-29T14:05:20.474Z,14.80
2017-10-29T14:07:48.087Z,14.80
2017-10-29T14:10:15.711Z,14.70
2017-10-29T14:12:43.332Z,14.50
2017-10-29T14:15:10.969Z,14.30
2017-10-29T14:17:39.365Z,14.00
2017-10-29T14:20:07.740Z,14.00
2017-10-29T14:22:36.070Z,13.90
2017-10-29T14:25:03.695Z,13.90
2017-10-29T14:27:31.394Z,13.80
2017-10-29T14:29:59.015Z,13.80
2017-10-29T14:32:26.631Z,13.70
2017-10-29T14:34:54.232Z,13.70
2017-10-29T14:37:22.630Z,13.50
2017-10-29T14:39:50.260Z,13.50
2017-10-29T14:42:20.515Z,13.40
2017-10-29T14:44:48.131Z,13.40
2017-10-29T14:47:15.736Z,13.30
2017-10-29T14:49:43.355Z,13.20
2017-10-29T14:52:10.984Z,13.20
2017-10-29T14:54:38.566Z,13.20
2017-10-29T14:57:06.130Z,13.20
2017-10-29T14:59:33.774Z,13.10
2017-10-29T15:02:01.352Z,13.00
2017-10-29T15:04:28.912Z,12.90
2017-10-29T15:06:56.582Z,12.90
2017-10-29T15:09:24.186Z,12.80
2017-10-29T15:11:51.810Z,12.80
2017-10-29T15:14:19.371Z,12.70
2017-10-29T15:16:47.041Z,12.70
2017-10-29T15:19:15.412Z,12.70
2017-10-29T15:21:42.979Z,12.70
2017-10-29T15:24:10.621Z,12.60
2017-10-29T15:26:38.246Z,12.50
2017-10-29T15:29:05.875Z,12.40
2017-10-29T15:31:36.210Z,12.20
2017-10-29T15:34:04.551Z,12.20
2017-10-29T15:36:32.174Z,12.20
2017-10-29T15:38:59.770Z,12.20
2017-10-29T15:41:27.601Z,11.90
2017-10-29T15:43:55.226Z,11.90
2017-10-29T15:46:22.845Z,11.80
2017-10-29T15:48:50.447Z,11.70
2017-10-29T15:51:18.082Z,11.60
2017-10-29T15:53:45.719Z,11.60
2017-10-29T15:56:13.307Z,11.50
2017-10-29T15:58:40.874Z,11.50
2017-10-29T16:01:08.638Z,11.40
2017-10-29T16:03:36.206Z,11.40
2017-10-29T16:06:03.815Z,11.40
2017-10-29T16:08:31.442Z,11.20
2017-10-29T16:10:59.011Z,11.30
2017-10-29T16:13:27.387Z,11.20
2017-10-29T16:15:55.781Z,11.20
2017-10-29T16:18:23.352Z,11.10
2017-10-29T16:20:50.966Z,11.10
2017-10-29T16:23:18.619Z,11.10
2017-10-29T16:25:46.249Z,11.00
2017-10-29T16:28:13.868Z,11.00
2017-10-29T16:30:43.504Z,11.00
2017-10-29T16:33:11.103Z,10.90
2017-10-29T16:35:38.747Z,10.80
2017-10-29T16:38:06.330Z,10.90
2017-10-29T16:40:33.963Z,10.90
2017-10-29T16:43:01.572Z,10.80
2017-10-29T16:45:29.255Z,10.80
2017-10-29T16:47:56.840Z,10.80
2017-10-29T16:50:24.495Z,10.70
2017-10-29T16:52:52.825Z,10.50
2017-10-29T16:55:20.400Z,10.50
2017-10-29T16:57:48.036Z,10.50
2017-10-29T17:00:15.624Z,10.50
2017-10-29T17:02:43.242Z,10.50
2017-10-29T17:05:10.889Z,10.50
2017-10-29T17:07:38.485Z,10.40
2017-10-29T17:10:08.215Z,10.40
2017-10-29T17:12:38.179Z,10.30
2017-10-29T17:15:07.961Z,10.30
2017-10-29T17:17:37.032Z,10.30
2017-10-29T17:20:06.445Z,10.20
2017-10-29T17:22:45.565Z,10.10
2017-10-29T17:25:15.405Z,10.10
2017-10-29T17:27:43.063Z,10.00
2017-10-29T17:30:11.329Z,10.00
2017-10-29T17:32:38.944Z,10.00
2017-10-29T17:35:06.551Z,10.00
2017-10-29T17:37:34.151Z,10.00
2017-10-29T17:40:01.801Z,9.90
2017-10-29T17:42:29.378Z,10.00
2017-10-29T17:44:56.982Z,9.90
2017-10-29T17:47:24.589Z,9.90
2017-10-29T17:49:52.980Z,9.90
2017-10-29T17:52:20.557Z,9.90
2017-10-29T17:54:48.250Z,9.80
2017-10-29T17:57:15.828Z,9.90
2017-10-29T17:59:43.473Z,9.90
2017-10-29T18:02:11.061Z,9.90
2017-10-29T18:04:38.723Z,10.00
2017-10-29T18:07:06.411Z,10.00
2017-10-29T18:09:34.795Z,9.80
2017-10-29T18:12:02.440Z,9.80
2017-10-29T18:14:30.040Z,9.80
2017-10-29T18:16:57.691Z,9.80
2017-10-29T18:19:25.370Z,9.80
2017-10-29T18:21:58.229Z,9.60
2017-10-29T18:24:26.615Z,9.40
2017-10-29T18:26:54.970Z,9.50
2017-10-29T18:29:23.346Z,9.50
2017-10-29T18:31:50.971Z,9.50
2017-10-29T18:34:18.667Z,9.40
2017-10-29T18:36:46.253Z,9.40
2017-10-29T18:39:14.612Z,9.40
2017-10-29T18:41:42.383Z,9.40
2017-10-29T18:44:10.726Z,9.40
2017-10-29T18:46:38.331Z,9.30
2017-10-29T18:49:06.012Z,9.40
2017-10-29T18:51:33.580Z,9.20
2017-10-29T18:54:09.074Z,9.20
2017-10-29T18:56:36.653Z,9.20
2017-10-29T18:59:04.251Z,9.20
2017-10-29T19:01:31.868Z,9.10
2017-10-29T19:03:59.483Z,9.10
2017-10-29T19:06:27.095Z,9.10
2017-10-29T19:08:54.701Z,9.10
2017-10-29T19:11:22.316Z,9.10
2017-10-29T19:13:49.908Z,9.10
2017-10-29T19:16:18.231Z,9.00
2017-10-29T19:18:45.850Z,9.00
2017-10-29T19:21:13.420Z,9.00
2017-10-29T19:23:40.995Z,9.00
2017-10-29T19:26:08.599Z,9.00
2017-10-29T19:28:36.164Z,9.00
2017-10-29T19:31:03.735Z,9.00
2017-10-29T19:33:31.334Z,8.90
2017-10-29T19:35:59.004Z,8.90
2017-10-29T19:38:26.740Z,8.90
2017-10-29T19:40:54.411Z,8.90
2017-10-29T19:43:22.081Z,8.80
2017-10-29T19:45:49.683Z,8.80
2017-10-29T19:48:17.247Z,8.80
2017-10-29T19:50:44.872Z,8.70
2017-10-29T19:53:12.499Z,8.70
2017-10-29T19:55:40.874Z,8.50
2017-10-29T19:58:08.495Z,8.50
2017-10-29T20:00:36.094Z,8.50
2017-10-29T20:03:03.656Z,8.60
2017-10-29T20:05:32.035Z,8.30
2017-10-29T20:08:00.411Z,8.40
2017-10-29T20:10:28.029Z,8.40
2017-10-29T20:12:55.623Z,8.50
2017-10-29T20:15:23.214Z,8.50
2017-10-29T20:17:51.595Z,8.50
2017-10-29T20:20:19.937Z,8.40
2017-10-29T20:22:47.544Z,8.40
2017-10-29T20:25:15.247Z,8.30
2017-10-29T20:27:42.881Z,8.30
2017-10-29T20:30:10.449Z,8.40
2017-10-29T20:32:38.139Z,8.30
2017-10-29T20:35:05.736Z,8.30
2017-10-29T20:37:34.120Z,8.20
2017-10-29T20:40:02.452Z,8.10
2017-10-29T20:42:30.056Z,8.10
2017-10-29T20:44:57.650Z,7.90
2017-10-29T20:47:25.248Z,7.70
2017-10-29T20:49:52.817Z,7.70
2017-10-29T20:52:20.432Z,7.70
2017-10-29T20:54:48.015Z,7.80
2017-10-29T20:57:15.579Z,7.70
2017-10-29T20:59:43.166Z,7.80
2017-10-29T21:02:12.926Z,7.80
2017-10-29T21:04:40.501Z,7.50
2017-10-29T21:07:08.893Z,7.40
2017-10-29T21:09:36.470Z,7.40
2017-10-29T21:12:04.039Z,7.30
2017-10-29T21:14:32.442Z,7.20
2017-10-29T21:17:01.165Z,7.30
2017-10-29T21:19:30.429Z,7.30
2017-10-29T21:21:58.021Z,7.30
2017-10-29T21:24:25.647Z,7.10
2017-10-29T21:26:53.972Z,7.00
2017-10-29T21:29:21.661Z,7.00
2017-10-29T21:31:49.267Z,7.10
2017-10-29T21:34:16.855Z,7.20
2017-10-29T21:36:44.496Z,7.10
2017-10-29T21:39:12.087Z,7.10
2017-10-29T21:41:39.698Z,7.20
2017-10-29T21:44:08.027Z,7.10
2017-10-29T21:46:35.590Z,7.10
2017-10-29T21:49:03.201Z,7.10
2017-10-29T21:51:31.567Z,7.10
2017-10-29T21:53:59.217Z,7.10
2017-10-29T21:56:26.815Z,7.10
2017-10-29T21:58:54.385Z,7.10
2017-10-29T22:01:22.008Z,6.90
2017-10-29T22:03:50.366Z,6.80
2017-10-29T22:06:17.950Z,6.80
2017-10-29T22:08:46.332Z,6.70
2017-10-29T22:11:13.914Z,6.60
2017-10-29T22:13:42.312Z,6.80
2017-10-29T22:16:09.879Z,6.80
2017-10-29T22:18:37.453Z,6.90
2017-10-29T22:21:05.055Z,6.80
2017-10-29T22:23:32.631Z,6.80
2017-10-29T22:26:01.017Z,6.70
2017-10-29T22:28:28.582Z,6.70
2017-10-29T22:30:56.153Z,6.60
2017-10-29T22:33:23.768Z,6.50
2017-10-29T22:35:51.327Z,6.50
2017-10-29T22:38:19.089Z,6.50
2017-10-29T22:40:46.716Z,6.40
2017-10-29T22:43:14.291Z,6.40
2017-10-29T22:45:41.903Z,6.40
2017-10-29T22:48:09.490Z,6.40
2017-10-29T22:50:37.051Z,6.40
2017-10-29T22:53:04.668Z,6.50
2017-10-29T22:55:32.235Z,6.40
2017-10-29T22:58:00.612Z,6.40
2017-10-29T23:00:28.219Z,6.40
2017-10-29T23:02:55.797Z,6.40
2017-10-29T23:05:35.351Z,6.30
2017-10-29T23:08:04.447Z,6.40
2017-10-29T23:10:32.021Z,6.50
2017-10-29T23:12:59.640Z,6.50
2017-10-29T23:15:27.212Z,6.50
2017-10-29T23:17:54.809Z,6.40
2017-10-29T23:20:22.375Z,6.50
2017-10-29T23:22:50.000Z,6.50
2017-10-29T23:25:17.568Z,6.30
2017-10-29T23:27:45.144Z,6.40
2017-10-29T23:30:12.766Z,6.40
2017-10-29T23:32:40.327Z,6.50
2017-10-29T23:35:07.891Z,6.40
2017-10-29T23:37:35.500Z,6.50
2017-10-29T23:40:03.113Z,6.50
2017-10-29T23:42:30.726Z,6.50
2017-10-29T23:44:58.287Z,6.50
2017-10-29T23:47:25.893Z,6.50
2017-10-29T23:49:53.459Z,6.50
2017-10-29T23:52:21.054Z,6.50
2017-10-29T23:54:48.669Z,6.40
2017-10-29T23:57:16.295Z,6.30
2017-10-29T23:59:43.901Z,6.30
